Aérodrome :
LOGIN :

S'inscrire | Disclaimer

   EN    FR    IT 

 










Légende :    VFR   VFR Marginal   IFR   IFR Intensif   IFR Très Intensif
Visi : 
Plafond : 
>= 8 km
>= 3000ft
5 à 8 km
1000 à 3000 ft
1500m à 5 km
500 à 1000 ft
800 à 1500m
200 à 500 ft
< 800m
< 200 ft
Symboles :   Orages  Brouillard  Fortes neiges  Fortes précipitations  Vent > 20 kt
SIGMETs :   Divers  Orages  Givrage  Turbulence  Onde Orograph.  Cendres Volcan.







- Altitude de l'aérodrome : 53 ft
- Code IATA : HAM


EDDH - Hamburg

DERNIER METAR :
  • 172250Z 16007KT 9000 BKN006 00/M01 Q1020 TEMPO 4000 BR BKN004

METARs EXPIRÉS :
  • 172220Z 17006KT 9999 SCT007 M00/M01 Q1020 NOSIG
  • 172150Z 13006KT 9999 SCT007 BKN042 M01/M02 Q1020 NOSIG
  • 172120Z 15006KT 9999 FEW008 BKN042 M00/M02 Q1020 NOSIG
  • 172050Z 16004KT 9999 FEW009 SCT043 M01/M02 Q1020 NOSIG
  • 172020Z 15006KT 9999 FEW009 SCT250 M02/M03 Q1021 NOSIG

TAF COR TAF EDDH
Valide du 17 à 18h jusqu'au 19 à 00h UTC


171757Z 1718/1824 22004KT 9000 FEW013
PROB40
TEMPO 1719/1724 BKN007
BECMG 1722/1724 16007KT
TEMPO 1800/1824 BKN007
PROB30
TEMPO 1803/1807 3500 -SNRA BKN004
Pas de NOTAMs connus pour ce terrain.



MET'MAP, la Météo Aéronautique d'un coup d'oeil ! - Copyright ORBIFLY Décembre 2007 - Disclaimer

ORBIFLY MET'MAP TEAM :

Programmation & Développement : Alexandra Zaïnal
Conception & Développement : Baudouin d'Aumeries
Co-Programmation & Développement : Marc-Olivier Méhu
Soutien technique & logistique : Manuel Goepfert

Contact : metmap@orbifly.com




SOURCES & CREDITS :

   NOAA